Time;durP1;ratioP1;P1;durP2;ratioP2;P2;SDS_P1;SDS_P2;PMS_P1;PMS_P2;Temp;Humidity;BMP_temperature;BMP_pressure;BME280_temperature;BME280_humidity;BME280_pressure;Samples;Min_cycle;Max_cycle;Signal;HPM_P1;HPM_P2
2021/11/26 00:00:28;;;;;;;;;0.00;0.00;;;;;5.63;71.93;100751.16;5063821;28;45264;-82
2021/11/26 00:02:53;;;;;;;;;0.00;0.00;;;;;5.75;71.96;100779.03;5047028;28;47166;-80
2021/11/26 00:05:19;;;;;;;;;0.00;0.00;;;;;5.53;72.04;100752.59;5080955;28;45241;-82
2021/11/26 00:07:44;;;;;;;;;0.00;0.00;;;;;5.55;71.85;100763.84;5063760;28;45242;-82
2021/11/26 00:10:10;;;;;;;;;0.00;0.00;;;;;5.55;72.28;100762.13;5066098;28;45498;-81
2021/11/26 00:12:36;;;;;;;;;0.00;0.00;;;;;5.70;72.30;100791.84;5069691;28;47405;-81
2021/11/26 00:17:27;;;;;;;;;0.00;0.00;;;;;5.37;72.40;100735.75;5057685;28;45182;-82
2021/11/26 00:19:53;;;;;;;;;0.00;0.00;;;;;5.25;72.27;100710.44;5078872;28;45513;-81
2021/11/26 00:22:18;;;;;;;;;0.00;0.00;;;;;5.59;72.27;100776.00;5062212;28;45511;-82
2021/11/26 00:24:44;;;;;;;;;0.00;0.00;;;;;5.56;72.48;100769.06;5062586;28;45284;-81
2021/11/26 00:27:09;;;;;;;;;0.00;0.00;;;;;5.38;72.40;100745.25;5061540;28;45405;-82
2021/11/26 00:29:35;;;;;;;;;1.00;1.00;;;;;5.56;72.67;100771.63;5063250;28;45342;-82
2021/11/26 00:32:01;;;;;;;;;0.00;0.00;;;;;5.40;72.64;100747.06;5067942;28;45480;-81
2021/11/26 00:34:26;;;;;;;;;0.00;0.00;;;;;5.62;72.41;100770.94;5083252;28;45256;-80
2021/11/26 00:36:51;;;;;;;;;2.75;1.00;;;;;5.59;72.48;100773.44;5083188;28;45298;-81
2021/11/26 00:39:17;;;;;;;;;0.00;0.00;;;;;5.34;72.74;100731.38;5083289;28;45344;-82
2021/11/26 00:41:43;;;;;;;;;0.00;0.00;;;;;5.51;72.17;100755.13;5082693;28;46126;-80
2021/11/26 00:44:08;;;;;;;;;1.00;1.00;;;;;5.56;72.43;100758.72;5082842;28;45212;-79
2021/11/26 00:46:34;;;;;;;;;0.00;0.00;;;;;5.50;72.37;100762.81;5050055;28;45367;-81
2021/11/26 00:49:00;;;;;;;;;1.50;0.75;;;;;5.45;72.75;100760.97;5042994;28;45439;-79
2021/11/26 00:51:25;;;;;;;;;0.50;0.50;;;;;5.28;72.52;100732.09;5057881;28;48256;-80
2021/11/26 00:53:51;;;;;;;;;0.00;0.00;;;;;5.41;72.30;100758.25;5055466;28;45276;-79
2021/11/26 00:56:16;;;;;;;;;0.00;0.00;;;;;5.27;73.05;100729.47;5081927;28;45709;-79
2021/11/26 00:58:42;;;;;;;;;0.00;0.00;;;;;5.32;72.55;100741.66;5083077;28;45358;-81
2021/11/26 01:01:08;;;;;;;;;0.00;0.00;;;;;5.29;72.97;100736.41;5082686;28;45412;-80
2021/11/26 01:03:33;;;;;;;;;0.00;0.00;;;;;5.03;72.94;100691.75;5081252;28;45393;-82
2021/11/26 01:05:58;;;;;;;;;0.00;0.00;;;;;4.97;73.12;100695.00;5074404;28;45406;-80
2021/11/26 01:08:24;;;;;;;;;0.00;0.00;;;;;5.26;72.54;100738.91;5062150;28;45418;-80
2021/11/26 01:10:51;;;;;;;;;0.00;0.00;;;;;5.13;72.59;100718.69;5063076;28;46000;-80
2021/11/26 01:13:17;;;;;;;;;0.00;0.00;;;;;5.17;72.72;100733.44;5065863;28;45383;-81
2021/11/26 01:15:43;;;;;;;;;0.00;0.00;;;;;5.21;72.76;100743.06;5064839;28;45314;-80
2021/11/26 01:18:11;;;;;;;;;4.00;0.00;;;;;5.02;72.81;100711.50;5081874;28;45520;-80
2021/11/26 01:20:37;;;;;;;;;0.00;0.00;;;;;5.18;72.59;100730.06;5065913;28;46214;-80
2021/11/26 01:23:04;;;;;;;;;0.25;0.25;;;;;5.22;73.08;100720.69;5081067;28;45538;-81
2021/11/26 01:25:30;;;;;;;;;0.00;0.00;;;;;5.23;73.33;100733.63;5064556;28;45504;-80
2021/11/26 01:27:56;;;;;;;;;1.00;1.00;;;;;5.00;72.85;100686.50;5077856;28;45560;-81
2021/11/26 01:30:32;;;;;;;;;0.00;0.00;;;;;5.22;72.80;100729.31;5060849;28;46156;-81
2021/11/26 01:33:00;;;;;;;;;0.00;0.00;;;;;5.14;72.60;100716.16;5072065;28;45551;-81
2021/11/26 01:35:25;;;;;;;;;0.00;0.00;;;;;5.20;72.99;100724.09;5086015;28;45229;-81
2021/11/26 01:37:51;;;;;;;;;0.00;0.00;;;;;5.10;72.72;100711.75;5085000;28;45429;-82
2021/11/26 01:40:18;;;;;;;;;0.25;0.25;;;;;4.96;73.06;100682.91;5085695;28;46263;-81
2021/11/26 01:42:44;;;;;;;;;0.00;0.00;;;;;4.97;73.13;100682.13;5084176;28;45348;-82
2021/11/26 01:45:10;;;;;;;;;0.00;0.00;;;;;4.94;73.01;100679.44;5072548;28;45367;-81
2021/11/26 01:47:36;;;;;;;;;0.00;0.00;;;;;4.80;73.15;100654.09;5061752;28;45534;-81
2021/11/26 01:50:04;;;;;;;;;0.00;0.00;;;;;4.93;72.81;100667.34;5044257;28;47367;-81
2021/11/26 01:52:29;;;;;;;;;0.25;0.25;;;;;4.89;73.06;100658.66;5045597;28;45237;-81
2021/11/26 01:54:55;;;;;;;;;0.00;0.00;;;;;5.03;72.75;100682.28;5043920;28;45210;-81
2021/11/26 01:57:20;;;;;;;;;0.00;0.00;;;;;5.03;73.19;100687.44;5045429;28;45162;-80
2021/11/26 01:59:50;;;;;;;;;1.50;0.00;;;;;4.82;72.93;100644.69;5045058;28;46046;-80
2021/11/26 02:02:16;;;;;;;;;0.25;0.25;;;;;4.98;72.77;100663.22;5045196;28;45490;-81
2021/11/26 02:04:41;;;;;;;;;2.50;0.00;;;;;4.97;73.11;100653.72;5045298;28;45395;-81
2021/11/26 02:07:07;;;;;;;;;0.25;0.00;;;;;4.90;72.88;100642.34;5047790;28;45293;-80
2021/11/26 02:09:33;;;;;;;;;0.00;0.00;;;;;4.85;72.94;100624.97;5063362;28;47195;-79
2021/11/26 02:11:58;;;;;;;;;0.00;0.00;;;;;5.14;72.96;100666.25;5064854;28;45273;-79
2021/11/26 02:14:24;;;;;;;;;1.75;0.00;;;;;5.04;73.06;100655.66;5044208;28;45280;-80
2021/11/26 02:16:50;;;;;;;;;0.00;0.00;;;;;4.88;72.77;100609.59;5045144;28;45610;-80
2021/11/26 02:19:16;;;;;;;;;1.00;1.00;;;;;5.23;73.07;100655.34;5044827;28;45320;-80
2021/11/26 02:21:42;;;;;;;;;0.00;0.00;;;;;4.88;72.52;100600.16;5026303;28;45319;-81
2021/11/26 02:24:09;;;;;;;;;0.00;0.00;;;;;5.10;72.58;100626.59;5044902;28;45592;-81
2021/11/26 02:26:43;;;;;;;;;0.00;0.00;;;;;5.13;72.81;100643.84;5026858;28;45547;-81
2021/11/26 02:29:10;;;;;;;;;0.00;0.00;;;;;5.10;72.77;100646.34;5044428;28;45443;-81
2021/11/26 02:31:36;;;;;;;;;0.00;0.00;;;;;5.08;72.82;100635.97;5048340;28;45451;-80
2021/11/26 02:34:02;;;;;;;;;2.00;0.00;;;;;4.86;72.72;100606.06;5085130;28;45523;-80
2021/11/26 02:36:27;;;;;;;;;0.00;0.00;;;;;4.90;72.73;100628.59;5085467;28;45382;-80
2021/11/26 02:38:53;;;;;;;;;0.00;0.00;;;;;4.88;73.23;100628.53;5069719;28;46056;-80
2021/11/26 02:41:18;;;;;;;;;0.00;0.00;;;;;4.90;73.62;100638.91;5064478;28;45352;-80
2021/11/26 02:43:44;;;;;;;;;0.00;0.00;;;;;4.81;73.04;100619.72;5064616;28;45282;-81
2021/11/26 02:46:09;;;;;;;;;0.00;0.00;;;;;4.55;73.45;100588.84;5064857;28;45229;-80
2021/11/26 02:48:35;;;;;;;;;0.00;0.00;;;;;4.78;73.46;100616.19;5064481;28;45708;-82
2021/11/26 02:51:01;;;;;;;;;0.00;0.00;;;;;4.63;73.54;100589.06;5063017;28;45374;-80
2021/11/26 02:53:26;;;;;;;;;0.25;0.25;;;;;4.76;73.75;100597.19;5079912;28;45334;-80
2021/11/26 02:55:52;;;;;;;;;0.25;0.25;;;;;4.85;73.71;100592.31;5064696;28;45189;-80
2021/11/26 02:58:17;;;;;;;;;0.00;0.00;;;;;4.96;73.49;100605.53;5054321;28;45879;-81
2021/11/26 03:00:46;;;;;;;;;0.00;0.00;;;;;4.78;73.60;100583.50;5044354;28;45443;-80
2021/11/26 03:03:12;;;;;;;;;0.00;0.00;;;;;4.96;73.70;100600.34;5049665;28;45286;-80
2021/11/26 03:05:38;;;;;;;;;1.00;0.00;;;;;4.88;73.33;100584.69;5064588;28;45356;-80
2021/11/26 03:08:06;;;;;;;;;0.00;0.00;;;;;4.87;73.15;100576.91;5064311;28;46127;-81
2021/11/26 03:10:32;;;;;;;;;0.00;0.00;;;;;4.69;73.64;100553.16;5063945;28;45287;-81
2021/11/26 03:13:03;;;;;;;;;1.00;1.00;;;;;4.74;73.54;100573.94;5063759;28;45209;-81
2021/11/26 03:15:31;;;;;;;;;0.00;0.00;;;;;4.78;73.62;100580.06;5064286;28;45292;-80
2021/11/26 03:17:56;;;;;;;;;0.00;0.00;;;;;4.58;73.56;100557.13;5063877;28;45349;-80
2021/11/26 03:20:24;;;;;;;;;0.00;0.00;;;;;4.72;74.13;100583.34;5063896;28;45240;-80
2021/11/26 03:22:50;;;;;;;;;0.00;0.00;;;;;4.46;74.39;100547.31;5064102;28;45284;-81
2021/11/26 03:25:16;;;;;;;;;0.00;0.00;;;;;4.60;74.01;100562.34;5064073;28;45260;-80
2021/11/26 03:27:43;;;;;;;;;0.00;0.00;;;;;4.54;74.50;100551.00;5064018;28;45347;-79
2021/11/26 03:30:12;;;;;;;;;0.00;0.00;;;;;4.65;74.46;100550.44;5077516;28;45423;-80
2021/11/26 03:32:38;;;;;;;;;0.00;0.00;;;;;4.61;73.65;100523.72;5082712;28;45300;-80
2021/11/26 03:35:04;;;;;;;;;1.50;0.50;;;;;4.74;73.81;100542.09;5083260;28;45499;-79
2021/11/26 03:37:30;;;;;;;;;0.00;0.00;;;;;4.70;74.21;100525.69;5100895;27;48508;-79
2021/11/26 03:39:55;;;;;;;;;0.00;0.00;;;;;4.84;73.47;100548.44;5065725;28;45587;-79
2021/11/26 03:42:21;;;;;;;;;0.00;0.00;;;;;4.59;73.83;100507.31;5083846;28;45296;-79
2021/11/26 03:44:46;;;;;;;;;0.00;0.00;;;;;4.52;74.24;100485.63;5084247;28;45292;-80
2021/11/26 03:47:12;;;;;;;;;0.00;0.00;;;;;4.69;73.83;100505.88;5099238;27;48128;-80
2021/11/26 03:49:37;;;;;;;;;1.00;0.00;;;;;4.69;73.62;100495.56;5083709;28;45307;-79
2021/11/26 03:52:02;;;;;;;;;0.00;0.00;;;;;4.74;73.89;100499.16;5084001;28;45346;-79
2021/11/26 03:54:28;;;;;;;;;1.00;1.00;;;;;4.89;73.77;100521.94;5084424;28;44948;-79
2021/11/26 03:56:53;;;;;;;;;0.00;0.00;;;;;4.63;74.11;100473.03;5075596;28;47822;-80
2021/11/26 03:59:19;;;;;;;;;0.00;0.00;;;;;4.85;74.04;100501.16;5063490;28;45316;-80
2021/11/26 04:01:44;;;;;;;;;0.00;0.00;;;;;4.78;74.14;100487.22;5063523;28;45272;-79
2021/11/26 04:04:10;;;;;;;;;0.00;0.00;;;;;4.66;73.89;100472.28;5062141;28;45323;-80
2021/11/26 04:06:35;;;;;;;;;0.00;0.00;;;;;4.85;74.26;100509.78;5078449;28;47531;-80
2021/11/26 04:09:01;;;;;;;;;1.00;0.25;;;;;4.84;73.78;100507.16;5061483;28;45306;-80
2021/11/26 04:11:26;;;;;;;;;1.00;1.00;;;;;4.86;73.75;100493.47;5062020;28;45244;-80
2021/11/26 04:13:52;;;;;;;;;0.00;0.00;;;;;4.61;73.60;100443.78;5062502;28;45649;-80
2021/11/26 04:16:18;;;;;;;;;0.00;0.00;;;;;4.83;74.41;100475.31;5061809;28;45506;-81
2021/11/26 04:18:44;;;;;;;;;1.75;0.00;;;;;4.63;74.19;100426.63;5046419;28;45635;-81
2021/11/26 04:21:11;;;;;;;;;1.00;0.25;;;;;4.96;74.01;100484.25;5045014;28;45425;-80
2021/11/26 04:23:36;;;;;;;;;1.25;1.25;;;;;4.84;73.79;100459.00;5062719;28;45403;-80
2021/11/26 04:26:03;;;;;;;;;0.00;0.00;;;;;4.92;73.52;100467.84;5062638;28;46257;-80
2021/11/26 04:28:28;;;;;;;;;0.00;0.00;;;;;4.95;73.82;100472.22;5060844;28;45298;-80
2021/11/26 04:30:54;;;;;;;;;1.00;0.00;;;;;4.84;73.98;100437.50;5062623;28;45277;-80
2021/11/26 04:33:20;;;;;;;;;0.00;0.00;;;;;5.04;73.64;100466.41;5078967;28;45262;-80
2021/11/26 04:35:49;;;;;;;;;0.00;0.00;;;;;4.99;73.44;100455.13;5082664;28;46457;-80
2021/11/26 04:38:17;;;;;;;;;0.00;0.00;;;;;4.78;73.64;100404.69;5084324;28;45386;-80
2021/11/26 04:40:43;;;;;;;;;2.00;0.00;;;;;5.00;73.97;100449.13;5084551;28;45306;-80
2021/11/26 04:43:08;;;;;;;;;1.25;0.75;;;;;4.96;73.69;100442.97;5082764;28;45248;-80
2021/11/26 04:45:34;;;;;;;;;0.00;0.00;;;;;4.82;73.62;100417.72;5052722;28;45178;-81
2021/11/26 04:47:59;;;;;;;;;0.00;0.00;;;;;5.04;73.86;100449.25;5060429;28;45291;-80
2021/11/26 04:50:25;;;;;;;;;1.50;1.50;;;;;4.85;73.66;100423.78;5062441;28;45573;-80
2021/11/26 04:52:50;;;;;;;;;0.00;0.00;;;;;4.91;73.47;100445.47;5062709;28;45431;-81
2021/11/26 04:55:16;;;;;;;;;0.00;0.00;;;;;5.03;73.25;100455.22;5063286;28;46173;-80
2021/11/26 04:57:43;;;;;;;;;0.00;0.00;;;;;4.86;73.38;100422.94;5044889;28;45282;-80
2021/11/26 05:00:09;;;;;;;;;0.50;0.50;;;;;4.89;74.00;100435.91;5063365;28;45319;-80
2021/11/26 05:02:35;;;;;;;;;0.50;0.50;;;;;4.98;73.14;100446.50;5050841;28;45380;-80
2021/11/26 05:05:00;;;;;;;;;0.25;0.25;;;;;4.81;73.61;100399.63;5041505;28;47349;-80
2021/11/26 05:07:25;;;;;;;;;0.00;0.00;;;;;4.98;73.53;100412.94;5047916;28;45600;-80
2021/11/26 05:09:52;;;;;;;;;0.50;0.00;;;;;4.93;73.01;100399.03;5061351;28;45837;-79
2021/11/26 05:12:19;;;;;;;;;4.00;2.50;;;;;4.72;73.82;100368.41;5049496;28;45585;-83
2021/11/26 05:14:44;;;;;;;;;0.25;0.25;;;;;5.02;73.67;100416.50;5063689;28;47487;-83
2021/11/26 05:17:10;;;;;;;;;0.00;0.00;;;;;4.93;73.78;100405.09;5061542;28;45314;-84
2021/11/26 05:19:35;;;;;;;;;0.50;0.00;;;;;4.87;73.31;100386.00;5076740;28;45321;-84
2021/11/26 05:22:00;;;;;;;;;1.75;1.75;;;;;4.92;73.23;100389.56;5076526;28;45327;-84
2021/11/26 05:24:26;;;;;;;;;0.00;0.00;;;;;4.90;73.48;100389.53;5082401;27;46991;-84
2021/11/26 05:26:51;;;;;;;;;0.50;0.50;;;;;5.02;73.12;100395.88;5067018;28;45335;-84
2021/11/26 05:29:16;;;;;;;;;0.00;0.00;;;;;4.80;73.21;100362.63;5062237;28;45241;-84
2021/11/26 05:31:42;;;;;;;;;2.00;1.00;;;;;4.91;73.65;100388.72;5080184;28;45344;-83
2021/11/26 05:34:08;;;;;;;;;2.75;1.00;;;;;4.86;73.81;100377.38;5099286;27;47228;-83
2021/11/26 05:36:35;;;;;;;;;0.00;0.00;;;;;4.86;74.14;100369.66;5083733;28;45365;-83
2021/11/26 05:39:03;;;;;;;;;0.00;0.00;;;;;4.74;73.94;100339.25;5081962;28;45373;-84
2021/11/26 05:41:28;;;;;;;;;0.00;0.00;;;;;4.62;73.88;100320.91;5074440;27;45463;-82
2021/11/26 05:43:54;;;;;;;;;0.00;0.00;;;;;4.79;73.51;100339.38;5090210;27;47143;-83
2021/11/26 05:46:19;;;;;;;;;0.00;0.00;;;;;4.87;74.00;100339.59;5080005;27;45316;-84
2021/11/26 05:48:44;;;;;;;;;0.75;0.00;;;;;5.02;73.83;100355.44;5067123;28;45422;-80
2021/11/26 05:51:10;;;;;;;;;1.25;1.00;;;;;5.02;73.42;100332.22;5082196;28;45250;-78
2021/11/26 05:53:35;;;;;;;;;0.00;0.00;;;;;5.10;73.45;100331.53;5082519;28;46295;-78
2021/11/26 05:56:00;;;;;;;;;1.00;1.00;;;;;4.86;73.45;100283.66;5082125;28;45220;-79
2021/11/26 05:58:27;;;;;;;;;0.00;0.00;;;;;4.96;73.12;100302.81;5084420;28;45274;-79
2021/11/26 06:00:52;;;;;;;;;0.00;0.00;;;;;5.24;73.35;100331.88;5083618;28;45289;-76
2021/11/26 06:03:17;;;;;;;;;0.00;0.00;;;;;5.03;73.30;100296.97;5084275;28;45138;-77
2021/11/26 06:05:43;;;;;;;;;0.00;0.00;;;;;5.12;73.23;100304.94;5083252;28;45356;-76
2021/11/26 06:08:08;;;;;;;;;0.00;0.00;;;;;5.05;73.36;100285.84;5084612;28;45363;-77
2021/11/26 06:10:33;;;;;;;;;0.00;0.00;;;;;5.22;73.31;100311.19;5074662;28;45284;-76
2021/11/26 06:12:59;;;;;;;;;0.00;0.00;;;;;5.19;72.79;100299.09;5058397;28;45770;-75
2021/11/26 06:15:25;;;;;;;;;0.00;0.00;;;;;5.16;72.71;100290.41;5062812;28;45446;-76
2021/11/26 06:17:51;;;;;;;;;0.00;0.00;;;;;4.66;72.88;100207.53;5050862;28;45540;-75
2021/11/26 06:20:17;;;;;;;;;0.00;0.00;;;;;5.20;72.94;100303.41;5051176;28;45316;-76
2021/11/26 06:22:43;;;;;;;;;0.00;0.00;;;;;5.19;72.94;100303.38;5063747;28;46062;-77
2021/11/26 06:25:11;;;;;;;;;1.00;0.00;;;;;5.14;72.75;100287.78;5053714;28;45309;-78
2021/11/26 06:27:37;;;;;;;;;4.00;0.00;;;;;5.00;72.63;100264.25;5049889;28;45445;-79
2021/11/26 06:30:07;;;;;;;;;0.00;0.00;;;;;5.05;72.58;100269.47;5045856;28;45240;-81
2021/11/26 06:32:33;;;;;;;;;0.00;0.00;;;;;5.02;72.55;100259.13;5054510;28;46172;-81
2021/11/26 06:34:58;;;;;;;;;0.00;0.00;;;;;5.06;72.32;100253.19;5058414;28;45520;-82
2021/11/26 06:37:23;;;;;;;;;0.00;0.00;;;;;5.17;72.74;100250.84;5060933;28;45340;-81
2021/11/26 06:39:49;;;;;;;;;1.00;1.00;;;;;5.00;72.41;100225.53;5067145;28;45177;-81
2021/11/26 06:42:14;;;;;;;;;0.00;0.00;;;;;5.17;72.15;100246.56;5052505;28;47561;-80
2021/11/26 06:44:39;;;;;;;;;0.00;0.00;;;;;5.28;72.16;100254.56;5062840;28;45276;-80
2021/11/26 06:47:05;;;;;;;;;0.00;0.00;;;;;5.12;72.05;100230.13;5078410;27;45411;-80
2021/11/26 06:49:31;;;;;;;;;0.00;0.00;;;;;5.13;71.81;100230.97;5056173;28;45506;-82
2021/11/26 06:51:56;;;;;;;;;0.00;0.00;;;;;5.21;71.79;100242.34;5039617;28;47152;-81
2021/11/26 06:54:22;;;;;;;;;1.75;1.00;;;;;5.27;71.89;100246.78;5058439;28;45496;-79
2021/11/26 06:56:47;;;;;;;;;0.00;0.00;;;;;5.29;71.94;100239.94;5060448;28;45415;-80
2021/11/26 06:59:12;;;;;;;;;0.00;0.00;;;;;5.24;71.71;100237.22;5026934;28;45337;-79
2021/11/26 07:01:38;;;;;;;;;0.25;0.25;;;;;5.21;71.59;100232.03;5046103;28;45452;-79
2021/11/26 07:04:04;;;;;;;;;0.75;0.00;;;;;5.12;71.56;100208.59;5043776;28;45289;-79
2021/11/26 07:06:30;;;;;;;;;0.00;0.00;;;;;5.23;72.10;100214.84;5043825;28;45410;-79
2021/11/26 07:08:55;;;;;;;;;0.00;0.00;;;;;5.10;71.52;100187.03;5058885;28;45501;-79
2021/11/26 07:11:21;;;;;;;;;0.00;0.00;;;;;5.19;72.02;100200.16;5036944;28;47333;-78
2021/11/26 07:13:46;;;;;;;;;0.00;0.00;;;;;5.25;72.00;100204.56;5057068;28;45391;-78
2021/11/26 07:16:11;;;;;;;;;1.25;0.00;;;;;5.12;71.74;100185.38;5059222;28;45855;-80
2021/11/26 07:18:37;;;;;;;;;0.00;0.00;;;;;5.00;71.93;100161.03;5059809;28;45633;-78
2021/11/26 07:21:02;;;;;;;;;2.00;0.25;;;;;5.12;71.62;100177.63;5058544;28;45379;-80
2021/11/26 07:23:28;;;;;;;;;0.00;0.00;;;;;5.22;72.14;100189.00;5060337;28;45350;-79
2021/11/26 07:25:53;;;;;;;;;0.00;0.00;;;;;5.19;71.53;100175.22;5061074;28;45886;-80
2021/11/26 07:28:19;;;;;;;;;0.25;0.25;;;;;5.28;71.40;100181.41;5077597;28;45232;-80
2021/11/26 07:30:45;;;;;;;;;0.00;0.00;;;;;5.12;71.44;100152.72;5058539;28;47485;-81
2021/11/26 07:33:10;;;;;;;;;1.75;0.00;;;;;5.19;71.27;100161.44;5067551;28;45240;-80
2021/11/26 07:35:35;;;;;;;;;0.00;0.00;;;;;5.17;71.33;100161.41;5063500;28;45320;-80
2021/11/26 07:38:01;;;;;;;;;0.00;0.00;;;;;5.26;71.41;100168.47;5055406;28;45433;-80
2021/11/26 07:40:27;;;;;;;;;0.00;0.00;;;;;5.31;71.73;100160.81;5044878;28;45170;-80
2021/11/26 07:42:52;;;;;;;;;0.75;0.75;;;;;5.27;71.42;100154.72;5057314;28;45564;-80
2021/11/26 07:45:18;;;;;;;;;0.00;0.00;;;;;5.27;71.03;100154.72;5062189;28;45181;-79
2021/11/26 07:47:44;;;;;;;;;0.75;0.00;;;;;5.26;71.37;100157.25;5062660;28;45421;-80
2021/11/26 07:50:11;;;;;;;;;0.00;0.00;;;;;5.20;70.84;100139.94;5062188;28;46378;-79
2021/11/26 07:52:38;;;;;;;;;1.00;1.00;;;;;5.24;70.87;100151.22;5062034;28;45491;-80
2021/11/26 07:55:05;;;;;;;;;0.00;0.00;;;;;5.22;71.02;100146.03;5061547;28;45307;-81
2021/11/26 07:57:30;;;;;;;;;0.00;0.00;;;;;5.11;70.32;100124.28;5063888;28;45574;-81
2021/11/26 07:59:55;;;;;;;;;0.00;0.00;;;;;5.19;70.76;100135.63;5063125;28;46060;-80
2021/11/26 08:02:21;;;;;;;;;1.00;1.00;;;;;5.18;70.66;100131.31;5060103;28;45187;-80
2021/11/26 08:04:46;;;;;;;;;1.00;1.00;;;;;5.23;70.27;100131.41;5059911;28;45383;-81
2021/11/26 08:07:11;;;;;;;;;0.00;0.00;;;;;5.12;70.59;100110.53;5060315;28;45218;-79
2021/11/26 08:09:37;;;;;;;;;2.25;0.00;;;;;5.22;70.62;100109.88;5056909;28;45572;-80
2021/11/26 08:12:03;;;;;;;;;0.00;0.00;;;;;5.33;70.91;100120.44;5043279;28;45373;-81
2021/11/26 08:14:28;;;;;;;;;0.75;0.75;;;;;5.24;70.37;100078.94;5054680;28;45329;-81
2021/11/26 08:16:54;;;;;;;;;0.00;0.00;;;;;5.45;70.55;100102.59;5074019;28;45571;-79
2021/11/26 08:19:21;;;;;;;;;0.00;0.00;;;;;5.50;70.64;100100.09;5054925;28;47720;-81
2021/11/26 08:21:47;;;;;;;;;0.75;0.00;;;;;5.47;69.97;100099.16;5062043;28;45435;-81
2021/11/26 08:24:14;;;;;;;;;0.50;0.00;;;;;5.32;69.78;100082.53;5061832;28;45374;-80
2021/11/26 08:26:40;;;;;;;;;0.50;0.50;;;;;5.42;70.07;100096.53;5042293;28;45589;-81
2021/11/26 08:29:06;;;;;;;;;0.00;0.00;;;;;5.13;69.55;100058.09;5061038;28;46396;-81
2021/11/26 08:31:32;;;;;;;;;1.00;1.00;;;;;5.25;69.88;100084.16;5061694;28;45297;-81
2021/11/26 08:33:59;;;;;;;;;0.00;0.00;;;;;5.33;69.58;100092.91;5062817;28;45284;-81
2021/11/26 08:36:25;;;;;;;;;0.00;0.00;;;;;5.30;69.48;100090.25;5052551;28;45400;-81
2021/11/26 08:38:51;;;;;;;;;1.25;0.00;;;;;5.32;69.51;100090.28;5079343;28;46242;-81
2021/11/26 08:41:16;;;;;;;;;0.00;0.00;;;;;4.98;69.35;100040.59;5066053;28;46480;-82
2021/11/26 08:43:43;;;;;;;;;0.00;0.00;;;;;5.05;69.44;100037.28;5039214;28;45395;-83
2021/11/26 08:46:09;;;;;;;;;0.00;0.00;;;;;5.24;69.39;100066.91;5060728;28;45527;-81
2021/11/26 08:48:34;;;;;;;;;0.00;0.00;;;;;5.22;69.23;100055.69;5072343;28;47169;-81
2021/11/26 08:51:00;;;;;;;;;0.00;0.00;;;;;5.29;69.19;100069.56;5061838;28;45449;-82
2021/11/26 08:53:25;;;;;;;;;0.00;0.00;;;;;5.28;68.72;100060.09;5061760;28;45497;-81
2021/11/26 08:55:53;;;;;;;;;2.50;0.00;;;;;5.27;69.07;100053.22;5046205;28;45279;-82
2021/11/26 08:58:19;;;;;;;;;0.00;0.00;;;;;5.36;69.04;100062.84;5059593;28;45585;-81
2021/11/26 09:00:45;;;;;;;;;0.00;0.00;;;;;5.31;68.87;100047.25;5062448;28;45551;-82
2021/11/26 09:03:12;;;;;;;;;0.00;0.00;;;;;5.49;68.54;100074.25;5060240;28;45364;-82
2021/11/26 09:05:37;;;;;;;;;1.00;1.00;;;;;5.48;68.94;100063.06;5061185;28;45263;-81
2021/11/26 09:08:03;;;;;;;;;0.00;0.00;;;;;5.62;68.89;100065.91;5060793;28;46097;-81
2021/11/26 09:10:35;;;;;;;;;1.25;0.00;;;;;5.73;68.75;100049.72;5061418;28;45325;-81
2021/11/26 09:13:01;;;;;;;;;2.00;0.00;;;;;5.71;68.64;100029.03;5054581;28;45426;-82
2021/11/26 09:15:27;;;;;;;;;0.00;0.00;;;;;5.79;68.63;100027.44;5079285;27;45555;-78
2021/11/26 09:17:53;;;;;;;;;1.00;1.00;;;;;5.59;67.72;99988.38;5060805;28;46051;-81
2021/11/26 09:20:19;;;;;;;;;0.00;0.00;;;;;5.61;68.68;99970.34;5061796;28;45340;-81
2021/11/26 09:22:44;;;;;;;;;0.00;0.00;;;;;5.61;67.41;99958.31;5048770;28;45497;-81
2021/11/26 09:25:11;;;;;;;;;1.75;0.00;;;;;5.98;67.25;100006.22;5060597;28;45279;-82
2021/11/26 09:27:36;;;;;;;;;2.00;1.00;;;;;6.19;67.56;100003.13;5060722;28;45473;-82
2021/11/26 09:30:04;;;;;;;;;0.00;0.00;;;;;6.44;67.29;100000.91;5061504;28;45235;-81
2021/11/26 09:32:29;;;;;;;;;0.00;0.00;;;;;6.55;66.14;99993.25;5050745;28;45482;-81
2021/11/26 09:34:55;;;;;;;;;0.00;0.00;;;;;6.52;66.03;99983.75;5070532;28;45289;-82
2021/11/26 09:37:20;;;;;;;;;1.00;0.00;;;;;6.20;65.55;99922.16;5067048;28;45430;-82
2021/11/26 09:39:45;;;;;;;;;0.00;0.00;;;;;6.47;65.06;99972.50;5065617;28;45286;-81
2021/11/26 09:42:12;;;;;;;;;0.25;0.25;;;;;6.49;65.56;99963.03;5066264;28;45383;-83
2021/11/26 09:44:40;;;;;;;;;0.00;0.00;;;;;6.56;65.57;99957.06;5065860;28;45286;-81
2021/11/26 09:47:06;;;;;;;;;0.00;0.00;;;;;6.61;64.78;99964.91;5070203;28;46193;-82
2021/11/26 09:49:32;;;;;;;;;2.00;0.00;;;;;6.64;64.55;99946.84;5072163;28;45236;-82
2021/11/26 09:51:58;;;;;;;;;0.00;0.00;;;;;6.70;64.05;99951.22;5075679;28;45405;-81
2021/11/26 09:54:24;;;;;;;;;1.00;1.00;;;;;6.58;64.51;99920.91;5051896;28;45362;-81
2021/11/26 09:56:49;;;;;;;;;0.00;0.00;;;;;6.54;63.52;99916.53;5063988;28;45400;-80
2021/11/26 09:59:15;;;;;;;;;0.00;0.00;;;;;6.33;63.42;99903.38;5064733;28;45504;-81
2021/11/26 10:01:40;;;;;;;;;0.00;0.00;;;;;6.46;63.87;99925.06;5062612;28;45345;-81
2021/11/26 10:04:16;;;;;;;;;0.00;0.00;;;;;6.11;63.73;99880.66;5064975;28;45487;-81
2021/11/26 10:06:41;;;;;;;;;0.00;0.00;;;;;6.44;63.49;99916.41;5045769;28;48170;-81
2021/11/26 10:09:10;;;;;;;;;0.00;0.00;;;;;6.32;63.84;99888.72;5063962;28;45299;-82
2021/11/26 10:11:43;;;;;;;;;0.00;0.00;;;;;6.21;62.78;99875.66;5063057;28;45322;-82
2021/11/26 10:14:29;;;;;;;;;1.00;0.00;;;;;6.25;63.83;99875.69;5059302;28;45595;-81
2021/11/26 10:17:17;;;;;;;;;0.25;0.00;;;;;6.40;63.46;99890.53;5066300;28;45490;-80
2021/11/26 10:19:46;;;;;;;;;0.00;0.00;;;;;6.28;63.72;99858.50;5064896;28;45521;-80
2021/11/26 10:22:28;;;;;;;;;0.00;0.00;;;;;6.37;62.94;99855.16;5075989;28;45462;-82
2021/11/26 10:25:13;;;;;;;;;0.00;0.00;;;;;6.39;62.84;99863.81;5065102;28;45331;-83
2021/11/26 10:27:55;;;;;;;;;0.50;0.00;;;;;6.33;63.10;99848.22;5065868;28;45637;-82
2021/11/26 10:30:28;;;;;;;;;0.00;0.00;;;;;6.30;63.04;99832.66;5062867;28;46965;-82
2021/11/26 10:33:04;;;;;;;;;0.00;0.00;;;;;6.37;62.38;99836.22;5064240;28;45454;-82
2021/11/26 10:35:34;;;;;;;;;0.00;0.00;;;;;6.27;62.77;99824.88;5062682;28;45450;-82
2021/11/26 10:38:16;;;;;;;;;0.00;0.00;;;;;6.24;61.96;99802.44;5065637;28;45396;-82
2021/11/26 10:40:50;;;;;;;;;0.00;0.00;;;;;6.08;62.13;99780.72;5070439;28;45666;-81
2021/11/26 10:43:41;;;;;;;;;0.00;0.00;;;;;6.30;62.40;99823.19;5058232;28;45370;-81
2021/11/26 10:59:13;;;;;;;;;0.00;0.00;;;;;6.42;62.51;99782.81;5064729;28;46206;-80
2021/11/26 11:01:45;;;;;;;;;0.00;0.00;;;;;6.42;62.38;99768.19;5062487;28;45447;-80
2021/11/26 11:04:20;;;;;;;;;0.25;0.00;;;;;6.28;62.58;99726.66;5045049;28;45523;-79
2021/11/26 11:06:59;;;;;;;;;0.00;0.00;;;;;6.37;62.50;99748.31;5066767;28;46888;-83
2021/11/26 11:09:26;;;;;;;;;0.00;0.00;;;;;6.45;62.71;99750.13;5064398;28;45722;-79
2021/11/26 11:11:55;;;;;;;;;0.00;0.00;;;;;6.41;62.80;99729.38;5061790;28;45482;-79
2021/11/26 11:14:25;;;;;;;;;0.00;0.00;;;;;6.50;62.40;99720.84;5059827;28;46588;-79
2021/11/26 11:16:53;;;;;;;;;3.00;0.00;;;;;6.32;62.52;99686.22;5064457;28;46754;-82
2021/11/26 11:19:19;;;;;;;;;0.00;0.00;;;;;6.40;62.69;99681.13;5063849;28;46680;-84
2021/11/26 11:21:46;;;;;;;;;0.00;0.00;;;;;6.53;62.69;99695.91;5061450;28;45688;-85
2021/11/26 11:24:13;;;;;;;;;0.50;0.00;;;;;6.50;62.87;99694.97;5077459;28;45305;-85
2021/11/26 11:26:45;;;;;;;;;0.00;0.00;;;;;6.53;62.81;99685.56;5064499;28;45257;-85
2021/11/26 11:29:23;;;;;;;;;0.00;0.00;;;;;6.52;62.89;99672.59;5063680;28;45384;-84
2021/11/26 11:31:49;;;;;;;;;0.00;0.00;;;;;6.45;63.04;99653.56;5055706;28;45468;-84
2021/11/26 11:34:18;;;;;;;;;0.00;0.00;;;;;6.41;63.06;99634.59;5084716;28;45156;-87
2021/11/26 11:36:44;;;;;;;;;0.00;0.00;;;;;6.46;62.77;99632.03;5085824;28;45446;-84
2021/11/26 11:39:10;;;;;;;;;0.00;0.00;;;;;6.55;62.72;99628.63;5083806;28;46587;-84
2021/11/26 11:41:47;;;;;;;;;0.00;0.00;;;;;6.55;62.64;99629.53;5082851;28;45362;-85
2021/11/26 11:44:31;;;;;;;;;1.00;0.00;;;;;6.64;62.51;99635.63;5067118;28;45272;-84
2021/11/26 11:46:59;;;;;;;;;0.00;0.00;;;;;6.57;62.66;99614.91;5063103;28;45307;-85